sensor_id;sensor_type;location;lat;lon;timestamp;P1;durP1;ratioP1;P2;durP2;ratioP2
28266;SDS011;15525;45.568;5.448;2024-03-29T00:01:16;1.23;;;0.75;;
28266;SDS011;15525;45.568;5.448;2024-03-29T00:03:41;1.10;;;0.70;;
28266;SDS011;15525;45.568;5.448;2024-03-29T00:06:08;0.93;;;0.70;;
28266;SDS011;15525;45.568;5.448;2024-03-29T00:08:33;1.20;;;0.80;;
28266;SDS011;15525;45.568;5.448;2024-03-29T00:10:59;3.30;;;1.00;;
28266;SDS011;15525;45.568;5.448;2024-03-29T00:13:24;3.50;;;1.30;;
28266;SDS011;15525;45.568;5.448;2024-03-29T00:15:50;2.38;;;1.52;;
28266;SDS011;15525;45.568;5.448;2024-03-29T00:18:15;4.95;;;2.58;;
28266;SDS011;15525;45.568;5.448;2024-03-29T00:20:40;5.90;;;3.08;;
28266;SDS011;15525;45.568;5.448;2024-03-29T00:23:06;6.03;;;3.03;;
28266;SDS011;15525;45.568;5.448;2024-03-29T00:25:31;5.93;;;3.53;;
28266;SDS011;15525;45.568;5.448;2024-03-29T00:27:57;9.40;;;5.20;;
28266;SDS011;15525;45.568;5.448;2024-03-29T00:30:22;11.05;;;5.90;;
28266;SDS011;15525;45.568;5.448;2024-03-29T00:32:48;14.63;;;8.60;;
28266;SDS011;15525;45.568;5.448;2024-03-29T00:35:13;19.83;;;11.00;;
28266;SDS011;15525;45.568;5.448;2024-03-29T00:37:39;19.27;;;11.85;;
28266;SDS011;15525;45.568;5.448;2024-03-29T00:40:05;17.33;;;10.80;;
28266;SDS011;15525;45.568;5.448;2024-03-29T00:42:30;14.63;;;8.63;;
28266;SDS011;15525;45.568;5.448;2024-03-29T00:44:56;13.48;;;8.23;;
28266;SDS011;15525;45.568;5.448;2024-03-29T00:47:21;11.23;;;6.00;;
28266;SDS011;15525;45.568;5.448;2024-03-29T00:49:47;7.50;;;4.75;;
28266;SDS011;15525;45.568;5.448;2024-03-29T00:52:12;5.90;;;2.80;;
28266;SDS011;15525;45.568;5.448;2024-03-29T00:54:37;6.38;;;2.50;;
28266;SDS011;15525;45.568;5.448;2024-03-29T00:57:03;4.18;;;1.80;;
28266;SDS011;15525;45.568;5.448;2024-03-29T00:59:28;5.30;;;1.55;;
28266;SDS011;15525;45.568;5.448;2024-03-29T01:01:54;5.60;;;1.40;;
28266;SDS011;15525;45.568;5.448;2024-03-29T01:04:20;2.42;;;1.00;;
28266;SDS011;15525;45.568;5.448;2024-03-29T01:06:45;5.25;;;1.10;;
28266;SDS011;15525;45.568;5.448;2024-03-29T01:09:10;1.95;;;0.80;;
28266;SDS011;15525;45.568;5.448;2024-03-29T01:11:36;2.05;;;0.70;;
28266;SDS011;15525;45.568;5.448;2024-03-29T01:14:05;1.70;;;0.90;;
28266;SDS011;15525;45.568;5.448;2024-03-29T01:16:31;2.55;;;0.88;;
28266;SDS011;15525;45.568;5.448;2024-03-29T01:18:57;2.40;;;0.85;;
28266;SDS011;15525;45.568;5.448;2024-03-29T01:21:23;1.83;;;1.10;;
28266;SDS011;15525;45.568;5.448;2024-03-29T01:23:49;2.72;;;1.02;;
28266;SDS011;15525;45.568;5.448;2024-03-29T01:26:14;3.05;;;0.82;;
28266;SDS011;15525;45.568;5.448;2024-03-29T01:28:42;1.23;;;0.77;;
28266;SDS011;15525;45.568;5.448;2024-03-29T01:31:08;2.28;;;0.93;;
28266;SDS011;15525;45.568;5.448;2024-03-29T01:33:33;2.63;;;1.20;;
28266;SDS011;15525;45.568;5.448;2024-03-29T01:36:02;2.75;;;1.02;;
28266;SDS011;15525;45.568;5.448;2024-03-29T01:38:30;3.33;;;1.08;;
28266;SDS011;15525;45.568;5.448;2024-03-29T01:40:56;1.83;;;1.00;;
28266;SDS011;15525;45.568;5.448;2024-03-29T01:43:22;3.38;;;0.90;;
28266;SDS011;15525;45.568;5.448;2024-03-29T01:45:48;2.10;;;0.88;;
28266;SDS011;15525;45.568;5.448;2024-03-29T01:48:17;1.23;;;0.80;;
28266;SDS011;15525;45.568;5.448;2024-03-29T01:50:43;1.98;;;0.88;;
28266;SDS011;15525;45.568;5.448;2024-03-29T01:53:10;0.73;;;0.60;;
28266;SDS011;15525;45.568;5.448;2024-03-29T01:55:36;1.92;;;0.85;;
28266;SDS011;15525;45.568;5.448;2024-03-29T01:58:02;3.42;;;1.10;;
28266;SDS011;15525;45.568;5.448;2024-03-29T02:00:28;1.10;;;0.80;;
28266;SDS011;15525;45.568;5.448;2024-03-29T02:02:55;1.23;;;0.80;;
28266;SDS011;15525;45.568;5.448;2024-03-29T02:05:25;3.08;;;1.17;;
28266;SDS011;15525;45.568;5.448;2024-03-29T02:07:51;2.85;;;0.80;;
28266;SDS011;15525;45.568;5.448;2024-03-29T02:10:19;1.30;;;0.80;;
28266;SDS011;15525;45.568;5.448;2024-03-29T02:12:44;2.97;;;0.80;;
28266;SDS011;15525;45.568;5.448;2024-03-29T02:15:14;1.30;;;0.65;;
28266;SDS011;15525;45.568;5.448;2024-03-29T02:17:41;1.98;;;0.75;;
28266;SDS011;15525;45.568;5.448;2024-03-29T02:20:06;0.85;;;0.63;;
28266;SDS011;15525;45.568;5.448;2024-03-29T02:22:32;1.75;;;0.90;;
28266;SDS011;15525;45.568;5.448;2024-03-29T02:25:02;2.03;;;1.08;;
28266;SDS011;15525;45.568;5.448;2024-03-29T02:27:27;2.55;;;1.10;;
28266;SDS011;15525;45.568;5.448;2024-03-29T02:29:53;3.65;;;0.80;;
28266;SDS011;15525;45.568;5.448;2024-03-29T02:32:18;1.88;;;0.80;;
28266;SDS011;15525;45.568;5.448;2024-03-29T02:34:44;1.52;;;0.90;;
28266;SDS011;15525;45.568;5.448;2024-03-29T02:37:09;1.67;;;0.77;;
28266;SDS011;15525;45.568;5.448;2024-03-29T02:39:35;4.28;;;0.75;;
28266;SDS011;15525;45.568;5.448;2024-03-29T02:42:00;2.08;;;0.70;;
28266;SDS011;15525;45.568;5.448;2024-03-29T02:44:25;0.90;;;0.70;;
28266;SDS011;15525;45.568;5.448;2024-03-29T02:46:51;2.55;;;0.77;;
28266;SDS011;15525;45.568;5.448;2024-03-29T02:49:16;1.15;;;0.68;;
28266;SDS011;15525;45.568;5.448;2024-03-29T02:51:42;1.90;;;0.73;;
28266;SDS011;15525;45.568;5.448;2024-03-29T02:54:07;1.98;;;0.70;;
28266;SDS011;15525;45.568;5.448;2024-03-29T02:56:32;2.92;;;0.82;;
28266;SDS011;15525;45.568;5.448;2024-03-29T02:58:58;1.20;;;0.50;;
28266;SDS011;15525;45.568;5.448;2024-03-29T03:01:23;2.33;;;0.90;;
28266;SDS011;15525;45.568;5.448;2024-03-29T03:03:49;0.80;;;0.65;;
28266;SDS011;15525;45.568;5.448;2024-03-29T03:06:14;1.20;;;0.52;;
28266;SDS011;15525;45.568;5.448;2024-03-29T03:08:39;1.00;;;0.63;;
28266;SDS011;15525;45.568;5.448;2024-03-29T03:11:23;2.08;;;0.70;;
28266;SDS011;15525;45.568;5.448;2024-03-29T03:13:49;4.75;;;0.90;;
28266;SDS011;15525;45.568;5.448;2024-03-29T03:16:14;2.60;;;1.13;;
28266;SDS011;15525;45.568;5.448;2024-03-29T03:18:40;2.00;;;0.68;;
28266;SDS011;15525;45.568;5.448;2024-03-29T03:21:05;2.97;;;0.80;;
28266;SDS011;15525;45.568;5.448;2024-03-29T03:23:31;1.65;;;0.73;;
28266;SDS011;15525;45.568;5.448;2024-03-29T03:25:57;1.65;;;0.65;;
28266;SDS011;15525;45.568;5.448;2024-03-29T03:28:24;3.65;;;1.17;;
28266;SDS011;15525;45.568;5.448;2024-03-29T03:30:50;2.97;;;0.60;;
28266;SDS011;15525;45.568;5.448;2024-03-29T03:33:17;0.90;;;0.57;;
28266;SDS011;15525;45.568;5.448;2024-03-29T03:35:43;1.83;;;0.70;;
28266;SDS011;15525;45.568;5.448;2024-03-29T03:38:08;1.83;;;0.52;;
28266;SDS011;15525;45.568;5.448;2024-03-29T03:40:34;3.53;;;0.80;;
28266;SDS011;15525;45.568;5.448;2024-03-29T03:43:01;3.25;;;0.80;;
28266;SDS011;15525;45.568;5.448;2024-03-29T03:45:27;0.90;;;0.50;;
28266;SDS011;15525;45.568;5.448;2024-03-29T03:47:53;1.45;;;0.60;;
28266;SDS011;15525;45.568;5.448;2024-03-29T03:50:18;1.10;;;0.68;;
28266;SDS011;15525;45.568;5.448;2024-03-29T03:52:44;0.52;;;0.47;;
28266;SDS011;15525;45.568;5.448;2024-03-29T03:55:09;0.95;;;0.65;;
28266;SDS011;15525;45.568;5.448;2024-03-29T03:57:34;3.17;;;0.75;;
28266;SDS011;15525;45.568;5.448;2024-03-29T04:00:00;1.35;;;0.70;;
28266;SDS011;15525;45.568;5.448;2024-03-29T04:02:26;1.23;;;0.60;;
28266;SDS011;15525;45.568;5.448;2024-03-29T04:04:51;1.55;;;0.60;;
28266;SDS011;15525;45.568;5.448;2024-03-29T04:07:17;1.27;;;0.70;;
28266;SDS011;15525;45.568;5.448;2024-03-29T04:09:42;1.25;;;0.60;;
28266;SDS011;15525;45.568;5.448;2024-03-29T04:12:08;2.42;;;0.63;;
28266;SDS011;15525;45.568;5.448;2024-03-29T04:14:33;1.55;;;0.50;;
28266;SDS011;15525;45.568;5.448;2024-03-29T04:16:58;2.03;;;0.70;;
28266;SDS011;15525;45.568;5.448;2024-03-29T04:19:24;2.10;;;0.80;;
28266;SDS011;15525;45.568;5.448;2024-03-29T04:21:49;1.13;;;0.60;;
28266;SDS011;15525;45.568;5.448;2024-03-29T04:24:15;1.65;;;0.60;;
28266;SDS011;15525;45.568;5.448;2024-03-29T04:26:40;1.88;;;0.60;;
28266;SDS011;15525;45.568;5.448;2024-03-29T04:29:05;2.40;;;0.60;;
28266;SDS011;15525;45.568;5.448;2024-03-29T04:31:31;0.93;;;0.63;;
28266;SDS011;15525;45.568;5.448;2024-03-29T04:33:56;1.33;;;0.60;;
28266;SDS011;15525;45.568;5.448;2024-03-29T04:36:22;0.75;;;0.60;;
28266;SDS011;15525;45.568;5.448;2024-03-29T04:38:47;1.55;;;0.80;;
28266;SDS011;15525;45.568;5.448;2024-03-29T04:41:15;2.10;;;0.73;;
28266;SDS011;15525;45.568;5.448;2024-03-29T04:43:40;1.25;;;0.45;;
28266;SDS011;15525;45.568;5.448;2024-03-29T04:46:09;1.75;;;0.63;;
28266;SDS011;15525;45.568;5.448;2024-03-29T04:48:37;0.90;;;0.50;;
28266;SDS011;15525;45.568;5.448;2024-03-29T04:51:03;2.72;;;0.60;;
28266;SDS011;15525;45.568;5.448;2024-03-29T04:53:29;2.38;;;0.68;;
28266;SDS011;15525;45.568;5.448;2024-03-29T04:55:54;1.73;;;0.60;;
28266;SDS011;15525;45.568;5.448;2024-03-29T04:58:21;2.05;;;0.70;;
28266;SDS011;15525;45.568;5.448;2024-03-29T05:00:51;1.38;;;0.73;;
28266;SDS011;15525;45.568;5.448;2024-03-29T05:03:17;2.00;;;0.70;;
28266;SDS011;15525;45.568;5.448;2024-03-29T05:05:43;0.70;;;0.60;;
28266;SDS011;15525;45.568;5.448;2024-03-29T05:08:09;1.50;;;0.55;;
28266;SDS011;15525;45.568;5.448;2024-03-29T05:10:35;1.75;;;0.57;;
28266;SDS011;15525;45.568;5.448;2024-03-29T05:13:00;1.67;;;0.93;;
28266;SDS011;15525;45.568;5.448;2024-03-29T05:15:26;1.02;;;0.68;;
28266;SDS011;15525;45.568;5.448;2024-03-29T05:17:51;0.98;;;0.50;;
28266;SDS011;15525;45.568;5.448;2024-03-29T05:20:18;1.30;;;0.75;;
28266;SDS011;15525;45.568;5.448;2024-03-29T05:22:44;1.40;;;0.60;;
28266;SDS011;15525;45.568;5.448;2024-03-29T05:25:09;2.17;;;0.82;;
28266;SDS011;15525;45.568;5.448;2024-03-29T05:27:35;1.77;;;0.88;;
28266;SDS011;15525;45.568;5.448;2024-03-29T05:30:00;2.45;;;0.95;;
28266;SDS011;15525;45.568;5.448;2024-03-29T05:32:27;2.72;;;0.82;;
28266;SDS011;15525;45.568;5.448;2024-03-29T05:34:53;1.42;;;0.75;;
28266;SDS011;15525;45.568;5.448;2024-03-29T05:37:19;2.88;;;0.80;;
28266;SDS011;15525;45.568;5.448;2024-03-29T05:39:44;2.30;;;0.80;;
28266;SDS011;15525;45.568;5.448;2024-03-29T05:42:10;1.00;;;0.90;;
28266;SDS011;15525;45.568;5.448;2024-03-29T05:44:35;1.05;;;0.68;;
28266;SDS011;15525;45.568;5.448;2024-03-29T05:47:04;2.03;;;0.70;;
28266;SDS011;15525;45.568;5.448;2024-03-29T05:49:30;2.45;;;0.90;;
28266;SDS011;15525;45.568;5.448;2024-03-29T05:51:58;3.83;;;1.00;;
28266;SDS011;15525;45.568;5.448;2024-03-29T05:54:24;3.40;;;1.05;;
28266;SDS011;15525;45.568;5.448;2024-03-29T05:56:49;4.15;;;0.90;;
28266;SDS011;15525;45.568;5.448;2024-03-29T05:59:15;3.53;;;1.10;;
28266;SDS011;15525;45.568;5.448;2024-03-29T06:01:40;4.13;;;1.38;;
28266;SDS011;15525;45.568;5.448;2024-03-29T06:04:07;4.75;;;1.23;;
28266;SDS011;15525;45.568;5.448;2024-03-29T06:06:39;4.53;;;1.08;;
28266;SDS011;15525;45.568;5.448;2024-03-29T06:09:05;5.57;;;1.40;;
28266;SDS011;15525;45.568;5.448;2024-03-29T06:11:30;5.40;;;1.33;;
28266;SDS011;15525;45.568;5.448;2024-03-29T06:13:56;4.88;;;1.10;;
28266;SDS011;15525;45.568;5.448;2024-03-29T06:16:24;4.15;;;1.20;;
28266;SDS011;15525;45.568;5.448;2024-03-29T06:19:09;3.40;;;1.05;;
28266;SDS011;15525;45.568;5.448;2024-03-29T06:21:35;3.53;;;1.00;;
28266;SDS011;15525;45.568;5.448;2024-03-29T06:24:10;3.60;;;1.20;;
28266;SDS011;15525;45.568;5.448;2024-03-29T06:26:40;4.43;;;1.40;;
28266;SDS011;15525;45.568;5.448;2024-03-29T06:29:06;3.05;;;1.30;;
28266;SDS011;15525;45.568;5.448;2024-03-29T06:31:34;3.60;;;1.30;;
28266;SDS011;15525;45.568;5.448;2024-03-29T06:33:59;4.95;;;1.60;;
28266;SDS011;15525;45.568;5.448;2024-03-29T06:36:25;3.03;;;1.10;;
28266;SDS011;15525;45.568;5.448;2024-03-29T06:38:51;4.60;;;1.20;;
28266;SDS011;15525;45.568;5.448;2024-03-29T06:41:17;3.17;;;1.35;;
28266;SDS011;15525;45.568;5.448;2024-03-29T06:43:43;3.38;;;1.20;;
28266;SDS011;15525;45.568;5.448;2024-03-29T06:46:09;4.13;;;1.38;;
28266;SDS011;15525;45.568;5.448;2024-03-29T06:48:35;2.67;;;1.00;;
28266;SDS011;15525;45.568;5.448;2024-03-29T06:51:02;4.47;;;1.15;;
28266;SDS011;15525;45.568;5.448;2024-03-29T06:53:27;5.68;;;1.13;;
28266;SDS011;15525;45.568;5.448;2024-03-29T06:55:54;4.00;;;1.10;;
28266;SDS011;15525;45.568;5.448;2024-03-29T06:58:21;3.17;;;1.42;;
28266;SDS011;15525;45.568;5.448;2024-03-29T07:00:46;5.95;;;1.35;;
28266;SDS011;15525;45.568;5.448;2024-03-29T07:03:14;4.55;;;1.50;;
28266;SDS011;15525;45.568;5.448;2024-03-29T07:05:40;2.03;;;1.23;;
28266;SDS011;15525;45.568;5.448;2024-03-29T07:08:06;6.45;;;1.30;;
28266;SDS011;15525;45.568;5.448;2024-03-29T07:10:31;3.38;;;1.30;;
28266;SDS011;15525;45.568;5.448;2024-03-29T07:12:57;2.08;;;1.00;;
28266;SDS011;15525;45.568;5.448;2024-03-29T07:15:23;2.78;;;1.30;;
28266;SDS011;15525;45.568;5.448;2024-03-29T07:17:48;3.58;;;1.15;;
28266;SDS011;15525;45.568;5.448;2024-03-29T07:20:15;3.30;;;1.25;;
28266;SDS011;15525;45.568;5.448;2024-03-29T07:22:41;3.22;;;1.00;;
28266;SDS011;15525;45.568;5.448;2024-03-29T07:25:07;3.00;;;1.00;;
28266;SDS011;15525;45.568;5.448;2024-03-29T07:27:33;2.58;;;1.40;;
28266;SDS011;15525;45.568;5.448;2024-03-29T07:30:01;5.40;;;1.20;;
28266;SDS011;15525;45.568;5.448;2024-03-29T07:32:29;2.65;;;1.15;;
28266;SDS011;15525;45.568;5.448;2024-03-29T07:34:55;2.35;;;1.20;;
28266;SDS011;15525;45.568;5.448;2024-03-29T07:37:23;2.00;;;0.88;;
28266;SDS011;15525;45.568;5.448;2024-03-29T07:39:51;2.80;;;1.08;;
28266;SDS011;15525;45.568;5.448;2024-03-29T07:42:16;2.22;;;1.10;;
28266;SDS011;15525;45.568;5.448;2024-03-29T07:44:42;2.70;;;0.90;;
28266;SDS011;15525;45.568;5.448;2024-03-29T07:47:07;3.67;;;1.00;;
28266;SDS011;15525;45.568;5.448;2024-03-29T07:49:33;1.52;;;0.90;;
28266;SDS011;15525;45.568;5.448;2024-03-29T07:51:59;2.28;;;1.10;;
28266;SDS011;15525;45.568;5.448;2024-03-29T07:54:27;4.03;;;1.08;;
28266;SDS011;15525;45.568;5.448;2024-03-29T07:56:52;1.98;;;1.13;;
28266;SDS011;15525;45.568;5.448;2024-03-29T07:59:18;3.17;;;0.90;;
28266;SDS011;15525;45.568;5.448;2024-03-29T08:01:44;2.78;;;1.10;;
28266;SDS011;15525;45.568;5.448;2024-03-29T08:04:10;2.45;;;0.80;;
28266;SDS011;15525;45.568;5.448;2024-03-29T08:06:36;2.17;;;1.10;;
28266;SDS011;15525;45.568;5.448;2024-03-29T08:09:01;3.42;;;1.20;;
28266;SDS011;15525;45.568;5.448;2024-03-29T08:11:27;3.13;;;1.13;;
28266;SDS011;15525;45.568;5.448;2024-03-29T08:13:52;2.33;;;1.10;;
28266;SDS011;15525;45.568;5.448;2024-03-29T08:16:18;8.55;;;1.02;;
28266;SDS011;15525;45.568;5.448;2024-03-29T08:18:45;3.58;;;1.00;;
28266;SDS011;15525;45.568;5.448;2024-03-29T08:21:12;2.70;;;1.08;;
28266;SDS011;15525;45.568;5.448;2024-03-29T08:23:38;2.97;;;1.30;;
28266;SDS011;15525;45.568;5.448;2024-03-29T08:26:10;3.63;;;1.13;;
28266;SDS011;15525;45.568;5.448;2024-03-29T08:28:36;2.75;;;1.05;;
28266;SDS011;15525;45.568;5.448;2024-03-29T08:31:04;4.43;;;1.10;;
28266;SDS011;15525;45.568;5.448;2024-03-29T08:33:31;3.28;;;1.10;;
28266;SDS011;15525;45.568;5.448;2024-03-29T08:35:57;3.33;;;1.30;;
28266;SDS011;15525;45.568;5.448;2024-03-29T08:38:23;6.55;;;2.60;;
28266;SDS011;15525;45.568;5.448;2024-03-29T08:40:49;3.25;;;1.27;;
28266;SDS011;15525;45.568;5.448;2024-03-29T08:43:15;3.75;;;1.00;;
28266;SDS011;15525;45.568;5.448;2024-03-29T08:45:42;3.40;;;1.00;;
28266;SDS011;15525;45.568;5.448;2024-03-29T08:48:09;4.40;;;1.25;;
28266;SDS011;15525;45.568;5.448;2024-03-29T08:50:34;3.08;;;1.20;;
28266;SDS011;15525;45.568;5.448;2024-03-29T08:53:01;3.92;;;1.10;;
28266;SDS011;15525;45.568;5.448;2024-03-29T08:55:28;6.65;;;1.30;;
28266;SDS011;15525;45.568;5.448;2024-03-29T08:57:57;1.35;;;1.10;;
28266;SDS011;15525;45.568;5.448;2024-03-29T09:00:24;2.13;;;1.10;;
28266;SDS011;15525;45.568;5.448;2024-03-29T09:02:50;3.50;;;1.10;;
28266;SDS011;15525;45.568;5.448;2024-03-29T09:05:15;5.30;;;1.52;;
28266;SDS011;15525;45.568;5.448;2024-03-29T09:07:41;3.13;;;1.10;;
28266;SDS011;15525;45.568;5.448;2024-03-29T09:10:07;4.95;;;1.02;;
28266;SDS011;15525;45.568;5.448;2024-03-29T09:12:32;6.20;;;1.38;;
28266;SDS011;15525;45.568;5.448;2024-03-29T09:14:58;4.50;;;1.38;;
28266;SDS011;15525;45.568;5.448;2024-03-29T09:17:23;4.18;;;1.20;;
28266;SDS011;15525;45.568;5.448;2024-03-29T09:19:52;2.78;;;1.10;;
28266;SDS011;15525;45.568;5.448;2024-03-29T09:22:18;2.75;;;1.15;;
28266;SDS011;15525;45.568;5.448;2024-03-29T09:24:44;3.95;;;1.42;;
28266;SDS011;15525;45.568;5.448;2024-03-29T09:27:09;6.15;;;1.58;;
28266;SDS011;15525;45.568;5.448;2024-03-29T09:29:35;6.00;;;1.40;;
28266;SDS011;15525;45.568;5.448;2024-03-29T09:32:00;5.88;;;1.58;;
28266;SDS011;15525;45.568;5.448;2024-03-29T09:34:29;4.28;;;1.52;;
28266;SDS011;15525;45.568;5.448;2024-03-29T09:36:55;3.85;;;1.73;;
28266;SDS011;15525;45.568;5.448;2024-03-29T09:39:21;4.03;;;1.50;;
28266;SDS011;15525;45.568;5.448;2024-03-29T09:41:46;4.85;;;1.30;;
28266;SDS011;15525;45.568;5.448;2024-03-29T09:44:12;6.88;;;1.60;;
28266;SDS011;15525;45.568;5.448;2024-03-29T09:46:38;6.20;;;1.77;;
28266;SDS011;15525;45.568;5.448;2024-03-29T09:49:06;5.68;;;1.73;;
28266;SDS011;15525;45.568;5.448;2024-03-29T09:51:32;5.55;;;1.55;;
28266;SDS011;15525;45.568;5.448;2024-03-29T09:53:59;6.68;;;1.80;;
28266;SDS011;15525;45.568;5.448;2024-03-29T09:56:26;11.85;;;2.25;;
28266;SDS011;15525;45.568;5.448;2024-03-29T09:58:52;10.02;;;1.77;;
28266;SDS011;15525;45.568;5.448;2024-03-29T10:01:18;6.18;;;1.73;;
28266;SDS011;15525;45.568;5.448;2024-03-29T10:03:44;4.20;;;1.50;;
28266;SDS011;15525;45.568;5.448;2024-03-29T10:06:14;6.50;;;1.83;;
28266;SDS011;15525;45.568;5.448;2024-03-29T10:08:40;7.18;;;1.73;;
28266;SDS011;15525;45.568;5.448;2024-03-29T10:11:06;7.70;;;1.83;;
28266;SDS011;15525;45.568;5.448;2024-03-29T10:13:31;7.25;;;1.92;;
28266;SDS011;15525;45.568;5.448;2024-03-29T10:15:57;8.23;;;1.73;;
28266;SDS011;15525;45.568;5.448;2024-03-29T10:18:23;9.00;;;1.83;;
28266;SDS011;15525;45.568;5.448;2024-03-29T10:23:28;9.35;;;2.40;;
28266;SDS011;15525;45.568;5.448;2024-03-29T10:25:54;7.72;;;1.90;;
28266;SDS011;15525;45.568;5.448;2024-03-29T10:28:19;12.60;;;2.10;;
28266;SDS011;15525;45.568;5.448;2024-03-29T10:30:45;10.90;;;2.00;;
28266;SDS011;15525;45.568;5.448;2024-03-29T10:33:14;10.60;;;2.28;;
28266;SDS011;15525;45.568;5.448;2024-03-29T10:35:43;11.45;;;2.38;;
28266;SDS011;15525;45.568;5.448;2024-03-29T10:38:10;10.95;;;1.88;;
28266;SDS011;15525;45.568;5.448;2024-03-29T10:40:37;13.32;;;2.38;;
28266;SDS011;15525;45.568;5.448;2024-03-29T10:43:06;15.48;;;1.92;;
28266;SDS011;15525;45.568;5.448;2024-03-29T10:45:37;14.18;;;3.25;;
28266;SDS011;15525;45.568;5.448;2024-03-29T10:48:03;13.10;;;2.03;;
28266;SDS011;15525;45.568;5.448;2024-03-29T10:50:36;12.25;;;2.20;;
28266;SDS011;15525;45.568;5.448;2024-03-29T10:53:04;16.50;;;2.47;;
28266;SDS011;15525;45.568;5.448;2024-03-29T10:55:32;10.32;;;2.30;;
28266;SDS011;15525;45.568;5.448;2024-03-29T10:57:59;16.23;;;2.40;;
28266;SDS011;15525;45.568;5.448;2024-03-29T11:00:27;11.73;;;2.80;;
28266;SDS011;15525;45.568;5.448;2024-03-29T11:05:28;17.13;;;2.95;;
28266;SDS011;15525;45.568;5.448;2024-03-29T11:07:56;18.65;;;2.88;;
28266;SDS011;15525;45.568;5.448;2024-03-29T11:13:05;15.65;;;2.22;;
28266;SDS011;15525;45.568;5.448;2024-03-29T11:15:45;21.75;;;3.20;;
28266;SDS011;15525;45.568;5.448;2024-03-29T11:18:12;15.90;;;2.95;;
28266;SDS011;15525;45.568;5.448;2024-03-29T11:20:41;13.15;;;2.63;;
28266;SDS011;15525;45.568;5.448;2024-03-29T11:23:12;17.65;;;3.08;;
28266;SDS011;15525;45.568;5.448;2024-03-29T11:25:50;21.55;;;3.55;;
28266;SDS011;15525;45.568;5.448;2024-03-29T11:28:25;22.73;;;3.78;;
28266;SDS011;15525;45.568;5.448;2024-03-29T11:35:51;25.33;;;4.05;;
28266;SDS011;15525;45.568;5.448;2024-03-29T11:38:17;24.92;;;3.05;;
28266;SDS011;15525;45.568;5.448;2024-03-29T11:40:53;25.88;;;3.17;;
28266;SDS011;15525;45.568;5.448;2024-03-29T11:43:19;17.10;;;4.15;;
28266;SDS011;15525;45.568;5.448;2024-03-29T11:45:44;20.55;;;3.58;;
28266;SDS011;15525;45.568;5.448;2024-03-29T11:48:13;23.05;;;3.83;;
28266;SDS011;15525;45.568;5.448;2024-03-29T11:50:40;30.33;;;4.20;;
28266;SDS011;15525;45.568;5.448;2024-03-29T11:53:06;30.42;;;4.55;;
28266;SDS011;15525;45.568;5.448;2024-03-29T11:55:31;28.55;;;3.85;;
28266;SDS011;15525;45.568;5.448;2024-03-29T11:57:59;23.30;;;3.40;;
28266;SDS011;15525;45.568;5.448;2024-03-29T12:00:26;26.38;;;3.95;;
28266;SDS011;15525;45.568;5.448;2024-03-29T12:02:55;22.05;;;3.95;;
28266;SDS011;15525;45.568;5.448;2024-03-29T12:05:22;25.35;;;5.35;;
28266;SDS011;15525;45.568;5.448;2024-03-29T12:07:48;28.67;;;4.05;;
28266;SDS011;15525;45.568;5.448;2024-03-29T12:10:13;18.13;;;3.55;;
28266;SDS011;15525;45.568;5.448;2024-03-29T12:12:39;28.23;;;4.28;;
28266;SDS011;15525;45.568;5.448;2024-03-29T12:15:07;31.67;;;4.40;;
28266;SDS011;15525;45.568;5.448;2024-03-29T12:17:33;34.05;;;4.20;;
28266;SDS011;15525;45.568;5.448;2024-03-29T12:19:58;25.30;;;3.53;;
28266;SDS011;15525;45.568;5.448;2024-03-29T12:22:30;36.08;;;4.35;;
28266;SDS011;15525;45.568;5.448;2024-03-29T12:24:57;36.35;;;4.38;;
28266;SDS011;15525;45.568;5.448;2024-03-29T12:27:23;31.08;;;4.70;;
28266;SDS011;15525;45.568;5.448;2024-03-29T12:29:50;32.03;;;3.95;;
28266;SDS011;15525;45.568;5.448;2024-03-29T12:32:18;27.00;;;3.85;;
28266;SDS011;15525;45.568;5.448;2024-03-29T12:34:45;30.67;;;3.90;;
28266;SDS011;15525;45.568;5.448;2024-03-29T12:37:10;39.35;;;5.10;;
28266;SDS011;15525;45.568;5.448;2024-03-29T12:39:36;39.00;;;4.63;;
28266;SDS011;15525;45.568;5.448;2024-03-29T12:42:04;40.35;;;4.82;;
28266;SDS011;15525;45.568;5.448;2024-03-29T12:44:30;40.67;;;5.50;;
28266;SDS011;15525;45.568;5.448;2024-03-29T12:46:57;32.42;;;5.40;;
28266;SDS011;15525;45.568;5.448;2024-03-29T12:49:26;34.72;;;4.50;;
28266;SDS011;15525;45.568;5.448;2024-03-29T12:51:51;34.78;;;5.25;;
28266;SDS011;15525;45.568;5.448;2024-03-29T12:54:17;35.92;;;5.57;;
28266;SDS011;15525;45.568;5.448;2024-03-29T12:56:43;37.17;;;4.88;;
28266;SDS011;15525;45.568;5.448;2024-03-29T12:59:09;41.05;;;4.82;;
28266;SDS011;15525;45.568;5.448;2024-03-29T13:01:35;26.45;;;5.03;;
28266;SDS011;15525;45.568;5.448;2024-03-29T13:04:00;34.38;;;4.65;;
28266;SDS011;15525;45.568;5.448;2024-03-29T13:06:26;37.75;;;5.97;;
28266;SDS011;15525;45.568;5.448;2024-03-29T13:08:51;37.58;;;5.20;;
28266;SDS011;15525;45.568;5.448;2024-03-29T13:11:18;39.53;;;4.93;;
28266;SDS011;15525;45.568;5.448;2024-03-29T13:13:44;32.78;;;5.90;;
28266;SDS011;15525;45.568;5.448;2024-03-29T13:16:10;41.78;;;5.57;;
28266;SDS011;15525;45.568;5.448;2024-03-29T13:18:35;50.53;;;6.28;;
28266;SDS011;15525;45.568;5.448;2024-03-29T13:21:01;34.08;;;5.10;;
28266;SDS011;15525;45.568;5.448;2024-03-29T13:23:27;47.33;;;5.85;;
28266;SDS011;15525;45.568;5.448;2024-03-29T13:25:53;39.53;;;6.15;;
28266;SDS011;15525;45.568;5.448;2024-03-29T13:28:21;46.60;;;5.80;;
28266;SDS011;15525;45.568;5.448;2024-03-29T13:30:46;49.95;;;6.05;;
28266;SDS011;15525;45.568;5.448;2024-03-29T13:33:13;44.25;;;6.45;;
28266;SDS011;15525;45.568;5.448;2024-03-29T13:35:38;56.60;;;6.03;;
28266;SDS011;15525;45.568;5.448;2024-03-29T13:38:09;56.60;;;7.93;;
28266;SDS011;15525;45.568;5.448;2024-03-29T13:40:34;52.28;;;6.07;;
28266;SDS011;15525;45.568;5.448;2024-03-29T13:43:00;56.63;;;8.43;;
28266;SDS011;15525;45.568;5.448;2024-03-29T13:45:25;49.88;;;6.35;;
28266;SDS011;15525;45.568;5.448;2024-03-29T13:47:52;56.38;;;7.90;;
28266;SDS011;15525;45.568;5.448;2024-03-29T13:50:18;55.33;;;6.90;;
28266;SDS011;15525;45.568;5.448;2024-03-29T13:52:43;49.05;;;7.30;;
28266;SDS011;15525;45.568;5.448;2024-03-29T13:55:09;46.20;;;7.40;;
28266;SDS011;15525;45.568;5.448;2024-03-29T13:57:34;57.47;;;6.47;;
28266;SDS011;15525;45.568;5.448;2024-03-29T14:00:00;52.58;;;7.35;;
28266;SDS011;15525;45.568;5.448;2024-03-29T14:02:27;41.15;;;7.93;;
28266;SDS011;15525;45.568;5.448;2024-03-29T14:04:53;51.67;;;7.15;;
28266;SDS011;15525;45.568;5.448;2024-03-29T14:07:19;45.45;;;7.00;;
28266;SDS011;15525;45.568;5.448;2024-03-29T14:09:45;49.85;;;6.90;;
28266;SDS011;15525;45.568;5.448;2024-03-29T14:12:11;49.53;;;7.18;;
28266;SDS011;15525;45.568;5.448;2024-03-29T14:14:38;52.42;;;6.07;;
28266;SDS011;15525;45.568;5.448;2024-03-29T14:17:03;51.15;;;5.55;;
28266;SDS011;15525;45.568;5.448;2024-03-29T14:19:31;51.10;;;7.22;;
28266;SDS011;15525;45.568;5.448;2024-03-29T14:21:58;47.80;;;6.97;;
28266;SDS011;15525;45.568;5.448;2024-03-29T14:24:24;42.90;;;5.80;;
28266;SDS011;15525;45.568;5.448;2024-03-29T14:26:50;35.67;;;6.05;;
28266;SDS011;15525;45.568;5.448;2024-03-29T14:29:20;55.28;;;5.70;;
28266;SDS011;15525;45.568;5.448;2024-03-29T14:31:49;42.95;;;6.25;;
28266;SDS011;15525;45.568;5.448;2024-03-29T14:34:16;45.85;;;5.22;;
28266;SDS011;15525;45.568;5.448;2024-03-29T14:36:42;48.95;;;6.53;;
28266;SDS011;15525;45.568;5.448;2024-03-29T14:39:08;37.45;;;5.32;;
28266;SDS011;15525;45.568;5.448;2024-03-29T14:41:34;41.78;;;5.45;;
28266;SDS011;15525;45.568;5.448;2024-03-29T14:44:01;33.05;;;5.63;;
28266;SDS011;15525;45.568;5.448;2024-03-29T14:46:27;37.65;;;4.75;;
28266;SDS011;15525;45.568;5.448;2024-03-29T14:48:53;38.28;;;5.43;;
28266;SDS011;15525;45.568;5.448;2024-03-29T14:51:19;38.65;;;5.30;;